Time;durP1;ratioP1;P1;durP2;ratioP2;P2;SDS_P1;SDS_P2;PMS_P1;PMS_P2;Temp;Humidity;BMP_temperature;BMP_pressure;BME280_temperature;BME280_humidity;BME280_pressure;Samples;Min_cycle;Max_cycle;Signal;HPM_P1;HPM_P2
2021/05/29 00:01:59;;;;;;;6.27;4.70;;;;;;;5.91;100.00;101408.44;4958982;28;20214;-71
2021/05/29 00:04:25;;;;;;;5.80;4.70;;;;;;;5.95;100.00;101416.22;4953191;28;20244;-71
2021/05/29 00:06:51;;;;;;;6.27;4.10;;;;;;;5.92;100.00;101411.03;4955494;28;20206;-71
2021/05/29 00:09:17;;;;;;;5.07;4.20;;;;;;;5.88;100.00;101412.75;4948456;28;20228;-71
2021/05/29 00:11:44;;;;;;;6.43;4.87;;;;;;;5.91;100.00;101411.03;4935806;28;20285;-71
2021/05/29 00:14:10;;;;;;;6.13;4.70;;;;;;;5.81;100.00;101408.38;4934094;28;20221;-71
2021/05/29 00:16:36;;;;;;;6.73;4.70;;;;;;;5.90;100.00;101407.56;4938045;28;20206;-72
2021/05/29 00:19:03;;;;;;;5.87;4.53;;;;;;;5.96;100.00;101412.84;4951853;28;20800;-71
2021/05/29 00:21:30;;;;;;;8.47;4.70;;;;;;;5.80;100.00;101406.63;4954850;28;20221;-71
2021/05/29 00:23:56;;;;;;;5.30;4.47;;;;;;;5.87;100.00;101407.56;4956376;28;20216;-71
2021/05/29 00:26:22;;;;;;;5.83;4.37;;;;;;;5.95;100.00;101402.44;4950573;28;20210;-71
2021/05/29 00:28:48;;;;;;;7.00;4.23;;;;;;;5.76;100.00;101404.91;4935160;28;20290;-71
2021/05/29 00:31:15;;;;;;;6.00;5.10;;;;;;;5.66;100.00;101404.00;4953124;28;20262;-70
2021/05/29 00:33:43;;;;;;;5.63;4.53;;;;;;;5.61;100.00;101403.09;4945698;28;20209;-70
2021/05/29 00:36:09;;;;;;;6.77;4.60;;;;;;;5.60;100.00;101403.09;4947345;28;20613;-71
2021/05/29 00:38:35;;;;;;;7.03;4.90;;;;;;;5.88;100.00;101409.28;4948707;28;20564;-71
2021/05/29 00:41:07;;;;;;;7.07;4.47;;;;;;;5.78;100.00;101407.50;4952683;28;20302;-71
2021/05/29 00:43:33;;;;;;;5.50;4.77;;;;;;;5.68;100.00;101403.97;4955294;28;20719;-71
2021/05/29 00:45:59;;;;;;;5.17;4.67;;;;;;;5.81;100.00;101412.72;4953112;28;20217;-71
2021/05/29 00:48:25;;;;;;;5.27;4.60;;;;;;;5.82;100.00;101412.72;4958634;28;20235;-70
2021/05/29 00:50:59;;;;;;;7.83;4.63;;;;;;;5.84;100.00;101417.88;4963644;28;20264;-72
2021/05/29 00:53:26;;;;;;;7.70;4.93;;;;;;;5.68;100.00;101411.75;4954416;28;20195;-71
2021/05/29 00:55:52;;;;;;;6.00;4.57;;;;;;;5.67;100.00;101416.06;4954189;28;20204;-70
2021/05/29 00:58:20;;;;;;;5.47;4.53;;;;;;;5.62;100.00;101419.47;4952126;28;20203;-73
2021/05/29 01:00:46;;;;;;;6.07;5.10;;;;;;;5.65;100.00;101411.75;4954518;28;20198;-70
2021/05/29 01:03:12;;;;;;;6.40;4.63;;;;;;;5.56;100.00;101411.66;4951953;28;20220;-70
2021/05/29 01:05:39;;;;;;;6.20;4.93;;;;;;;5.56;100.00;101416.84;4942405;28;20226;-70
2021/05/29 01:08:06;;;;;;;6.77;5.17;;;;;;;5.47;100.00;101417.63;4948521;28;20208;-70
2021/05/29 01:10:32;;;;;;;6.60;5.30;;;;;;;5.44;100.00;101417.63;4923942;28;20206;-70
2021/05/29 01:13:00;;;;;;;6.50;5.13;;;;;;;5.43;100.00;101418.47;4955421;28;20288;-70
2021/05/29 01:15:31;;;;;;;5.83;4.90;;;;;;;5.37;100.00;101408.09;4953252;28;20715;-70
2021/05/29 01:17:58;;;;;;;5.03;4.33;;;;;;;5.28;100.00;101414.91;4947741;28;20237;-70
2021/05/29 01:20:24;;;;;;;6.67;5.57;;;;;;;5.39;100.00;101421.91;4937529;29;20198;-71
2021/05/29 01:22:52;;;;;;;7.60;5.23;;;;;;;5.35;100.00;101418.41;4947040;28;20308;-70
2021/05/29 01:25:22;;;;;;;6.20;5.23;;;;;;;5.38;100.00;101418.44;4958311;28;20217;-71
2021/05/29 01:27:55;;;;;;;5.97;5.00;;;;;;;5.23;100.00;101418.31;4956292;28;20214;-70
2021/05/29 01:30:21;;;;;;;7.43;5.60;;;;;;;5.10;100.00;101415.63;4954972;28;20209;-70
2021/05/29 01:32:48;;;;;;;6.97;5.37;;;;;;;5.09;100.00;101419.06;4951263;28;20198;-70
2021/05/29 01:35:14;;;;;;;6.17;5.30;;;;;;;5.07;100.00;101419.91;4957009;28;20305;-69
2021/05/29 01:37:40;;;;;;;9.17;5.87;;;;;;;5.01;100.00;101418.09;4951633;28;20667;-69
2021/05/29 01:40:09;;;;;;;6.60;5.20;;;;;;;5.04;100.00;101415.56;4950421;28;20522;-70
2021/05/29 01:42:36;;;;;;;7.97;5.33;;;;;;;4.94;100.00;101416.31;4954363;28;20234;-71
2021/05/29 01:45:06;;;;;;;6.23;4.83;;;;;;;4.89;100.00;101421.47;4954626;28;20244;-70
2021/05/29 01:47:34;;;;;;;6.67;4.43;;;;;;;4.83;100.00;101417.94;4948578;28;20238;-70
2021/05/29 01:50:00;;;;;;;6.47;5.10;;;;;;;4.90;100.00;101417.16;4955994;28;20284;-70
2021/05/29 01:52:52;;;;;;;8.97;5.90;;;;;;;5.02;100.00;101419.00;4961214;28;20217;-71
2021/05/29 01:55:23;;;;;;;6.73;4.97;;;;;;;4.97;100.00;101421.53;4951230;28;20241;-70
2021/05/29 01:57:51;;;;;;;6.23;4.93;;;;;;;4.93;100.00;101424.94;4959723;28;20210;-70
2021/05/29 02:00:20;;;;;;;6.80;4.40;;;;;;;4.88;100.00;101429.19;4958176;28;20210;-70
2021/05/29 02:02:46;;;;;;;7.17;5.27;;;;;;;4.83;100.00;101426.53;4953203;28;20606;-71
2021/05/29 02:05:15;;;;;;;5.50;4.30;;;;;;;5.05;100.00;101421.63;4955239;28;20690;-70
2021/05/29 02:07:42;;;;;;;6.33;4.87;;;;;;;4.96;100.00;101424.09;4959118;28;20194;-71
2021/05/29 02:10:10;;;;;;;6.43;4.60;;;;;;;4.77;100.00;101423.91;4956045;28;20206;-70
2021/05/29 02:12:42;;;;;;;5.67;4.80;;;;;;;4.62;100.00;101421.16;4959263;28;20226;-71
2021/05/29 02:15:11;;;;;;;6.23;4.70;;;;;;;4.71;100.00;101422.13;4957425;28;20252;-70
2021/05/29 02:17:37;;;;;;;6.20;4.87;;;;;;;4.73;100.00;101424.72;4944867;28;20599;-70
2021/05/29 02:20:05;;;;;;;6.70;4.63;;;;;;;4.63;100.00;101421.19;4956388;28;20198;-70
2021/05/29 02:22:31;;;;;;;6.27;4.90;;;;;;;4.57;100.00;101422.81;4961330;28;20229;-70
2021/05/29 02:24:57;;;;;;;6.63;4.67;;;;;;;4.51;100.00;101416.72;4957547;28;20715;-71
2021/05/29 02:27:23;;;;;;;8.60;5.07;;;;;;;4.52;100.00;101421.06;4947183;28;20203;-69
2021/05/29 02:29:50;;;;;;;7.60;5.17;;;;;;;4.44;100.00;101412.34;4959253;28;21065;-69
2021/05/29 02:32:16;;;;;;;5.77;4.33;;;;;;;4.37;100.00;101420.88;4957849;28;20219;-70
2021/05/29 02:34:42;;;;;;;8.47;5.30;;;;;;;4.23;100.00;101419.84;4955687;28;20274;-70
2021/05/29 02:37:08;;;;;;;6.20;4.20;;;;;;;4.31;100.00;101420.78;4957182;28;20224;-71
2021/05/29 02:39:34;;;;;;;5.70;4.63;;;;;;;4.23;100.00;101425.88;4924395;28;20214;-73
2021/05/29 02:42:00;;;;;;;5.57;4.20;;;;;;;4.30;100.00;101422.50;4936077;29;20729;-71
2021/05/29 02:44:26;;;;;;;5.37;4.07;;;;;;;4.16;100.00;101424.91;4953732;28;20226;-70
2021/05/29 02:46:53;;;;;;;6.77;4.90;;;;;;;4.17;100.00;101425.81;4957581;28;20202;-70
2021/05/29 02:49:19;;;;;;;5.20;4.07;;;;;;;4.18;100.00;101424.94;4962111;28;20218;-71
2021/05/29 02:51:45;;;;;;;5.67;4.83;;;;;;;4.15;100.00;101420.63;4956098;28;20258;-70
2021/05/29 02:54:11;;;;;;;8.30;4.80;;;;;;;4.13;100.00;101424.00;4952528;28;20253;-70
2021/05/29 02:56:38;;;;;;;5.27;4.40;;;;;;;4.05;100.00;101425.63;4957185;28;20207;-70
2021/05/29 02:59:04;;;;;;;6.27;4.40;;;;;;;4.08;100.00;101433.41;4961826;28;20221;-70
2021/05/29 03:01:30;;;;;;;4.97;4.07;;;;;;;3.92;100.00;101434.91;4955674;28;20264;-70
2021/05/29 03:03:57;;;;;;;8.47;5.07;;;;;;;3.92;100.00;101428.06;4955012;28;20213;-70
2021/05/29 03:06:23;;;;;;;5.60;4.13;;;;;;;4.00;100.00;101435.88;4954086;28;20195;-70
2021/05/29 03:08:49;;;;;;;6.27;4.77;;;;;;;4.15;100.00;101428.34;4930632;28;20215;-70
2021/05/29 03:11:15;;;;;;;6.00;4.37;;;;;;;4.10;100.00;101442.06;4950565;28;20231;-70
2021/05/29 03:13:41;;;;;;;6.37;4.53;;;;;;;4.08;100.00;101442.03;4953990;28;20301;-70
2021/05/29 03:16:07;;;;;;;6.20;4.50;;;;;;;4.19;100.00;101442.16;4934520;28;20223;-70
2021/05/29 03:18:33;;;;;;;5.77;4.50;;;;;;;4.29;100.00;101432.81;4953515;28;20297;-70
2021/05/29 03:20:59;;;;;;;5.57;3.97;;;;;;;4.28;100.00;101437.13;4958855;28;20541;-70
2021/05/29 03:23:26;;;;;;;6.27;5.13;;;;;;;4.11;100.00;101441.19;4967121;28;20202;-72
2021/05/29 03:25:53;;;;;;;6.90;4.27;;;;;;;4.18;100.00;101441.28;4955630;28;20265;-70
2021/05/29 03:28:19;;;;;;;6.80;4.47;;;;;;;4.28;100.00;101431.94;4947479;29;20687;-71
2021/05/29 03:30:45;;;;;;;6.00;4.43;;;;;;;4.09;100.00;101442.88;4956096;28;20222;-72
2021/05/29 03:33:13;;;;;;;6.60;4.43;;;;;;;4.24;100.00;101439.63;4960136;28;20241;-72
2021/05/29 03:35:39;;;;;;;6.47;4.87;;;;;;;4.29;100.00;101444.03;4954211;28;20222;-70
2021/05/29 03:38:06;;;;;;;6.10;4.70;;;;;;;4.12;100.00;101448.97;4959499;28;20217;-71
2021/05/29 03:40:33;;;;;;;5.13;4.43;;;;;;;4.25;100.00;101446.53;4940803;28;20257;-70
2021/05/29 03:42:59;;;;;;;6.63;5.00;;;;;;;4.16;100.00;101453.31;4965812;28;20201;-70
2021/05/29 03:45:26;;;;;;;7.57;5.07;;;;;;;4.26;100.00;101459.47;4945844;28;20231;-70
2021/05/29 03:47:52;;;;;;;7.30;5.07;;;;;;;4.13;100.00;101457.56;4918277;29;20242;-70
2021/05/29 03:50:20;;;;;;;6.73;5.40;;;;;;;4.25;100.00;101455.16;4946245;28;20587;-69
2021/05/29 03:52:46;;;;;;;7.10;5.30;;;;;;;4.21;100.00;101452.53;4952453;28;20215;-71
2021/05/29 03:55:14;;;;;;;8.23;5.03;;;;;;;4.26;100.00;101459.47;4942308;28;20226;-72
2021/05/29 03:57:40;;;;;;;8.43;5.20;;;;;;;4.35;100.00;101456.16;4950729;28;20595;-70
2021/05/29 04:00:10;;;;;;;7.47;5.27;;;;;;;4.30;100.00;101448.31;4958002;28;20201;-70
2021/05/29 04:02:42;;;;;;;7.77;5.50;;;;;;;4.44;100.00;101455.41;4953985;28;20297;-70
2021/05/29 04:05:10;;;;;;;8.23;6.10;;;;;;;4.58;100.00;101448.66;4961031;28;20241;-70
2021/05/29 04:07:38;;;;;;;10.83;7.20;;;;;;;4.65;100.00;101450.47;4958736;28;20202;-71
2021/05/29 04:10:05;;;;;;;10.07;6.87;;;;;;;4.82;100.00;101448.09;4957208;28;20798;-69
2021/05/29 04:12:32;;;;;;;10.23;7.27;;;;;;;4.92;100.00;101449.03;4958262;28;20217;-71
2021/05/29 04:14:58;;;;;;;8.80;6.70;;;;;;;5.07;100.00;101458.69;4946413;28;20611;-69
2021/05/29 04:17:26;;;;;;;9.83;7.17;;;;;;;5.15;100.00;101456.16;4933312;29;20269;-71
2021/05/29 04:19:52;;;;;;;9.03;6.57;;;;;;;5.37;100.00;101457.22;4957904;28;20569;-70
2021/05/29 04:22:18;;;;;;;11.17;7.37;;;;;;;5.53;100.00;101459.06;4951823;28;20214;-70
2021/05/29 04:24:44;;;;;;;11.43;8.23;;;;;;;5.63;100.00;101466.06;4932723;28;20639;-70
2021/05/29 04:27:10;;;;;;;10.50;7.63;;;;;;;5.78;100.00;101457.53;4950586;28;20685;-72
2021/05/29 04:29:37;;;;;;;10.23;7.70;;;;;;;5.86;100.00;101463.63;4955048;28;20199;-73
2021/05/29 04:32:04;;;;;;;11.13;7.83;;;;;;;5.99;100.00;101461.16;4950440;28;20234;-70
2021/05/29 04:34:30;;;;;;;13.57;9.50;;;;;;;6.07;100.00;101456.91;4926776;28;20299;-70
2021/05/29 04:36:56;;;;;;;12.90;9.17;;;;;;;6.21;100.00;101467.34;4937175;28;20618;-70
2021/05/29 04:39:22;;;;;;;13.90;9.27;;;;;;;6.26;100.00;101475.97;4950144;28;20234;-70
2021/05/29 04:41:48;;;;;;;14.37;10.73;;;;;;;6.35;100.00;101481.22;4955985;28;20202;-69
2021/05/29 04:44:14;;;;;;;16.67;10.60;;;;;;;6.42;100.00;101480.38;4951394;28;20268;-70
2021/05/29 04:46:49;;;;;;;14.43;10.40;;;;;;;6.50;100.00;101480.41;4953007;28;20286;-70
2021/05/29 04:49:17;;;;;;;14.57;9.80;;;;;;;6.53;100.00;101482.16;4954291;28;20212;-73
2021/05/29 04:51:43;;;;;;;15.60;10.70;;;;;;;6.51;100.00;101483.84;4935191;28;20194;-72
2021/05/29 04:54:09;;;;;;;15.10;10.60;;;;;;;6.65;100.00;101484.81;4935188;29;20633;-72
2021/05/29 04:56:35;;;;;;;16.23;10.17;;;;;;;6.72;100.00;101483.06;4932330;28;20294;-70
2021/05/29 04:59:01;;;;;;;16.50;10.57;;;;;;;6.72;100.00;101488.25;4960737;28;20853;-70
2021/05/29 05:01:30;;;;;;;15.03;10.47;;;;;;;6.78;100.00;101493.47;4955491;28;20289;-70
2021/05/29 05:03:57;;;;;;;16.17;10.83;;;;;;;6.82;100.00;101484.84;4946865;28;20201;-70
2021/05/29 05:06:23;;;;;;;19.53;10.80;;;;;;;6.92;100.00;101490.94;4952107;28;20208;-69
2021/05/29 05:08:50;;;;;;;15.83;10.93;;;;;;;7.03;100.00;101494.41;4955638;28;20267;-70
2021/05/29 05:11:16;;;;;;;15.77;11.20;;;;;;;7.08;100.00;101499.63;4955353;28;20270;-70
2021/05/29 05:13:42;;;;;;;17.03;11.00;;;;;;;7.19;100.00;101498.78;4948756;28;20767;-70
2021/05/29 05:16:08;;;;;;;14.83;9.87;;;;;;;7.32;100.00;101491.88;4955238;28;20233;-72
2021/05/29 05:18:34;;;;;;;17.07;11.20;;;;;;;7.44;100.00;101496.22;4954242;28;20237;-70
2021/05/29 05:21:01;;;;;;;16.70;10.37;;;;;;;7.57;100.00;101502.28;4938637;28;20207;-71
2021/05/29 05:23:27;;;;;;;16.23;10.67;;;;;;;7.72;100.00;101491.00;4932831;28;20607;-72
2021/05/29 05:25:54;;;;;;;16.73;10.00;;;;;;;7.72;100.00;101499.69;4950808;28;20229;-71
2021/05/29 05:28:25;;;;;;;13.67;10.37;;;;;;;7.80;100.00;101491.03;4929959;29;20195;-70
2021/05/29 05:30:50;;;;;;;15.87;10.20;;;;;;;7.81;100.00;101491.03;4956510;28;20196;-72
2021/05/29 05:33:18;;;;;;;16.27;9.93;;;;;;;7.92;100.00;101498.81;4945481;28;20535;-70
2021/05/29 05:35:44;;;;;;;15.93;9.57;;;;;;;7.90;100.00;101498.81;4953781;28;20222;-70
2021/05/29 05:38:11;;;;;;;15.23;9.63;;;;;;;7.92;100.00;101498.81;4949926;28;20227;-71
2021/05/29 05:40:37;;;;;;;12.47;9.17;;;;;;;7.99;100.00;101510.06;4955188;28;20207;-70
2021/05/29 05:43:03;;;;;;;12.27;9.20;;;;;;;7.95;100.00;101511.78;4951042;28;20189;-71
2021/05/29 05:45:29;;;;;;;11.83;8.90;;;;;;;8.04;100.00;101516.06;4953766;28;20222;-70
2021/05/29 05:47:55;;;;;;;13.43;8.87;;;;;;;8.10;100.00;101500.50;4950233;28;20206;-71
2021/05/29 05:50:22;;;;;;;9.70;8.30;;;;;;;8.17;100.00;101504.81;4950739;28;20217;-70
2021/05/29 05:52:48;;;;;;;12.73;8.47;;;;;;;8.11;100.00;101500.50;4958260;28;20573;-70
2021/05/29 05:55:15;;;;;;;11.57;8.60;;;;;;;8.21;100.00;101511.72;4958405;28;20227;-73
2021/05/29 05:57:42;;;;;;;9.87;7.63;;;;;;;8.25;100.00;101515.16;4936373;28;20628;-71
2021/05/29 06:00:10;;;;;;;11.30;7.87;;;;;;;8.32;100.00;101511.72;4951830;28;20641;-72
2021/05/29 06:02:36;;;;;;;9.37;6.90;;;;;;;8.44;100.00;101513.44;4944277;28;20284;-73
2021/05/29 06:05:03;;;;;;;8.97;7.27;;;;;;;8.50;100.00;101510.81;4950678;28;20230;-71
2021/05/29 06:07:29;;;;;;;10.13;7.33;;;;;;;8.59;100.00;101507.34;4960720;28;20202;-71
2021/05/29 06:09:55;;;;;;;9.83;6.97;;;;;;;8.67;100.00;101510.75;4948400;28;20291;-70
2021/05/29 06:12:21;;;;;;;9.27;6.90;;;;;;;8.78;100.00;101518.53;4955798;28;20345;-71
2021/05/29 06:20:16;;;;;;;10.43;7.83;;;;;;;9.13;100.00;101520.06;4954609;28;20208;-71
2021/05/29 06:22:42;;;;;;;10.30;7.10;;;;;;;9.11;100.00;101525.25;4956724;28;20196;-70
2021/05/29 06:25:09;;;;;;;9.60;7.07;;;;;;;9.17;100.00;101525.25;4947286;28;20218;-70
2021/05/29 06:27:36;;;;;;;7.30;6.43;;;;;;;9.15;100.00;101521.78;4958001;28;20197;-70
2021/05/29 06:30:04;;;;;;;9.40;6.83;;;;;;;9.20;100.00;101530.44;4951005;28;20195;-70
2021/05/29 06:32:30;;;;;;;8.13;6.60;;;;;;;9.22;100.00;101535.63;4952085;28;20221;-73
2021/05/29 06:34:56;;;;;;;10.33;6.87;;;;;;;9.15;100.00;101533.94;4948955;28;20488;-70
2021/05/29 06:37:22;;;;;;;10.60;6.63;;;;;;;9.16;100.00;101530.44;4941793;28;20852;-70
2021/05/29 06:39:48;;;;;;;8.77;6.07;;;;;;;9.20;100.00;101534.75;4955094;28;20261;-70
2021/05/29 06:42:14;;;;;;;8.17;6.30;;;;;;;9.15;100.00;101537.41;4959848;28;20201;-70
2021/05/29 06:44:41;;;;;;;6.60;5.53;;;;;;;9.21;100.00;101537.34;4958804;28;20236;-70
2021/05/29 06:47:07;;;;;;;7.53;6.20;;;;;;;9.21;100.00;101536.50;4956291;28;20203;-70
2021/05/29 06:49:35;;;;;;;9.27;6.47;;;;;;;9.25;100.00;101538.19;4949253;28;20202;-70
2021/05/29 06:52:05;;;;;;;11.27;5.83;;;;;;;9.25;100.00;101543.41;4954068;28;20194;-71
2021/05/29 06:54:42;;;;;;;9.73;6.03;;;;;;;9.28;100.00;101535.59;4957582;28;20230;-70
2021/05/29 06:59:54;;;;;;;10.43;6.47;;;;;;;9.33;100.00;101541.63;4963773;28;20258;-71
2021/05/29 07:02:20;;;;;;;8.40;6.23;;;;;;;9.44;100.00;101544.16;4952763;28;20191;-71
2021/05/29 07:04:46;;;;;;;8.50;6.27;;;;;;;9.46;100.00;101547.59;4949081;28;20619;-72
2021/05/29 07:07:12;;;;;;;9.77;5.90;;;;;;;9.46;100.00;101543.28;4953653;28;20227;-70
2021/05/29 07:09:38;;;;;;;10.53;5.97;;;;;;;9.49;100.00;101539.78;4953812;28;20202;-70
2021/05/29 07:12:04;;;;;;;8.17;5.77;;;;;;;9.59;100.00;101544.06;4956272;28;20198;-70
2021/05/29 07:14:30;;;;;;;7.60;5.77;;;;;;;9.71;100.00;101548.31;4957316;28;20869;-71
2021/05/29 07:16:57;;;;;;;10.40;6.30;;;;;;;9.76;100.00;101543.94;4942280;28;20224;-71
2021/05/29 07:19:24;;;;;;;10.00;6.30;;;;;;;9.85;100.00;101548.19;4953502;28;20210;-71
2021/05/29 07:21:52;;;;;;;12.97;6.60;;;;;;;9.91;100.00;101561.16;4949977;28;20199;-70
2021/05/29 07:24:19;;;;;;;10.33;6.50;;;;;;;10.07;100.00;101556.69;4936526;28;20229;-70
2021/05/29 07:26:45;;;;;;;9.37;6.20;;;;;;;10.27;100.00;101568.66;4954261;28;20332;-70
2021/05/29 07:29:11;;;;;;;8.70;6.10;;;;;;;10.38;100.00;101556.41;4951803;28;20290;-70
2021/05/29 07:31:38;;;;;;;9.23;6.73;;;;;;;10.48;99.81;101563.25;4954954;28;20268;-70
2021/05/29 07:34:05;;;;;;;7.37;5.80;;;;;;;10.61;99.05;101557.03;4954058;28;20223;-71
2021/05/29 07:36:31;;;;;;;8.23;5.97;;;;;;;10.72;98.73;101554.28;4956111;28;20193;-71
2021/05/29 07:38:57;;;;;;;8.67;6.47;;;;;;;10.85;98.24;101552.38;4953590;28;20218;-71
2021/05/29 07:41:23;;;;;;;9.10;6.97;;;;;;;10.87;96.68;101557.59;4955426;28;20556;-73
2021/05/29 07:43:49;;;;;;;10.80;6.40;;;;;;;11.02;97.85;101559.16;4953075;28;20207;-72
2021/05/29 07:46:16;;;;;;;11.43;6.70;;;;;;;11.12;95.90;101560.75;4953102;28;20282;-71
2021/05/29 07:48:43;;;;;;;9.57;6.37;;;;;;;11.21;93.92;101570.22;4930743;28;20768;-71
2021/05/29 07:51:10;;;;;;;9.33;6.50;;;;;;;11.22;93.55;101570.19;4953407;28;20204;-70
2021/05/29 07:53:39;;;;;;;12.07;6.47;;;;;;;11.30;93.12;101568.31;4952708;28;20740;-71
2021/05/29 07:56:06;;;;;;;10.77;6.63;;;;;;;11.55;94.62;101568.81;4955424;28;20248;-70
2021/05/29 07:58:32;;;;;;;12.63;6.73;;;;;;;11.70;92.98;101569.50;4947146;28;20204;-71
2021/05/29 08:00:58;;;;;;;8.77;6.87;;;;;;;11.72;91.37;101571.19;4957762;28;20201;-71
2021/05/29 08:03:26;;;;;;;9.43;6.83;;;;;;;11.79;90.40;101574.56;4950199;28;20281;-70
2021/05/29 08:05:54;;;;;;;9.93;6.23;;;;;;;11.90;90.72;101579.59;4955123;28;20213;-73
2021/05/29 08:08:22;;;;;;;9.37;6.27;;;;;;;11.97;89.72;101564.72;4946829;28;20203;-70
2021/05/29 08:10:50;;;;;;;9.23;5.80;;;;;;;12.02;89.73;101561.13;4950609;28;20258;-72
2021/05/29 08:13:16;;;;;;;8.87;6.47;;;;;;;12.37;90.23;101559.66;4953225;28;20224;-71
2021/05/29 08:15:43;;;;;;;9.13;6.40;;;;;;;12.57;89.17;101563.63;4937290;28;20254;-71
2021/05/29 08:18:09;;;;;;;6.23;5.63;;;;;;;12.57;88.01;101561.88;4952714;28;20711;-71
2021/05/29 08:20:36;;;;;;;8.30;6.63;;;;;;;12.66;88.39;101566.94;4943420;28;20679;-70
2021/05/29 08:23:03;;;;;;;7.03;5.70;;;;;;;12.60;87.01;101560.97;4951877;28;20187;-72
2021/05/29 08:25:30;;;;;;;7.83;5.90;;;;;;;12.70;87.01;101565.13;4950380;28;20223;-73
2021/05/29 08:27:56;;;;;;;6.93;5.23;;;;;;;12.84;86.47;101556.97;4951243;28;20336;-71
2021/05/29 08:30:22;;;;;;;8.93;5.77;;;;;;;12.86;85.26;101560.44;4949667;28;20202;-70
2021/05/29 08:32:48;;;;;;;7.43;5.13;;;;;;;12.88;85.43;101550.81;4955397;28;20223;-70
2021/05/29 08:35:14;;;;;;;7.17;5.30;;;;;;;13.10;85.52;101556.41;4954613;28;20270;-70
2021/05/29 08:37:41;;;;;;;5.97;4.77;;;;;;;13.19;85.14;101556.25;4959068;28;20217;-70
2021/05/29 08:40:08;;;;;;;8.53;5.60;;;;;;;13.25;83.50;101563.94;4948539;28;20213;-71
2021/05/29 08:42:35;;;;;;;9.07;5.17;;;;;;;13.36;83.65;101560.25;4950372;28;20615;-71
2021/05/29 08:45:01;;;;;;;6.70;4.33;;;;;;;13.24;80.97;101562.25;4950580;28;20226;-71
2021/05/29 08:47:27;;;;;;;8.60;4.90;;;;;;;13.26;81.67;101563.06;4949332;28;20218;-71
2021/05/29 08:49:54;;;;;;;6.60;4.93;;;;;;;13.35;80.87;101571.63;4947970;28;20698;-71
2021/05/29 08:52:20;;;;;;;7.90;5.10;;;;;;;13.47;79.39;101583.59;4952668;28;20211;-73
2021/05/29 08:54:46;;;;;;;8.57;4.60;;;;;;;13.36;78.22;101583.84;4948800;28;21056;-74
2021/05/29 08:57:14;;;;;;;8.10;5.13;;;;;;;13.22;77.90;101576.25;4947461;28;20207;-75
2021/05/29 08:59:41;;;;;;;9.03;4.50;;;;;;;13.22;78.63;101581.47;4927888;28;20767;-74
2021/05/29 09:02:07;;;;;;;7.33;5.17;;;;;;;13.40;79.84;101573.25;4945695;28;20633;-74
2021/05/29 09:04:33;;;;;;;7.63;4.70;;;;;;;13.48;78.01;101578.31;4943290;28;20275;-72
2021/05/29 09:06:59;;;;;;;6.73;4.33;;;;;;;13.68;78.65;101590.94;4952845;28;20224;-73
2021/05/29 09:09:25;;;;;;;5.07;4.13;;;;;;;13.61;76.41;101584.13;4946808;28;20287;-72
2021/05/29 09:11:53;;;;;;;6.60;4.83;;;;;;;13.53;77.89;101583.47;4946184;28;20205;-71
2021/05/29 09:14:39;;;;;;;5.40;4.47;;;;;;;13.54;76.91;101582.53;4949800;28;20230;-71
2021/05/29 09:17:14;;;;;;;6.77;4.57;;;;;;;13.78;76.45;101586.34;4946082;28;20719;-72
2021/05/29 09:19:59;;;;;;;6.03;4.50;;;;;;;14.13;74.81;101587.22;4944766;28;20205;-71
2021/05/29 09:22:28;;;;;;;6.67;4.97;;;;;;;14.22;77.22;101587.00;4940699;28;20678;-73
2021/05/29 09:24:59;;;;;;;7.30;4.80;;;;;;;14.27;79.93;101579.88;4944747;28;20595;-72
2021/05/29 09:27:26;;;;;;;7.27;4.60;;;;;;;14.47;78.17;101578.47;4947892;28;20724;-72
2021/05/29 09:29:52;;;;;;;5.87;4.70;;;;;;;14.94;75.74;101581.56;4942877;28;21016;-71
2021/05/29 09:32:19;;;;;;;8.27;4.70;;;;;;;15.14;72.33;101583.56;4946584;28;20209;-72
2021/05/29 09:34:47;;;;;;;9.07;5.00;;;;;;;15.41;73.13;101583.63;4940620;28;20711;-71
2021/05/29 09:37:16;;;;;;;7.40;4.90;;;;;;;15.43;71.60;101585.31;4945859;28;20211;-72
2021/05/29 09:39:44;;;;;;;8.43;4.67;;;;;;;15.15;69.31;101585.31;4943367;28;20649;-71
2021/05/29 09:42:12;;;;;;;7.53;4.43;;;;;;;15.19;68.77;101594.81;4947573;28;20277;-71
2021/05/29 09:44:38;;;;;;;7.07;4.27;;;;;;;15.34;67.17;101596.97;4942648;28;20218;-71
2021/05/29 09:47:08;;;;;;;6.00;4.40;;;;;;;15.82;66.56;101589.41;4949553;28;20214;-71
2021/05/29 09:49:50;;;;;;;5.10;4.07;;;;;;;16.08;66.39;101583.28;4951568;28;20194;-72
2021/05/29 09:52:32;;;;;;;6.93;4.80;;;;;;;16.19;65.46;101591.66;4947864;28;20608;-71
2021/05/29 09:54:59;;;;;;;7.03;5.07;;;;;;;16.18;65.12;101583.78;4945656;28;20238;-71
2021/05/29 09:57:26;;;;;;;5.60;3.60;;;;;;;15.89;64.41;101580.41;4932832;28;20198;-73
2021/05/29 10:00:00;;;;;;;6.27;3.93;;;;;;;16.16;67.95;101573.31;4943302;28;20546;-72
2021/05/29 10:02:26;;;;;;;5.73;4.33;;;;;;;16.15;65.81;101583.94;4942783;28;20252;-71
2021/05/29 10:04:55;;;;;;;5.73;3.80;;;;;;;15.87;64.35;101576.97;4946853;28;20254;-71
2021/05/29 10:07:24;;;;;;;6.93;3.57;;;;;;;15.93;62.78;101582.00;4947779;28;20202;-71
2021/05/29 10:09:51;;;;;;;4.90;3.53;;;;;;;16.06;61.12;101588.56;4944614;28;20269;-71
2021/05/29 10:12:17;;;;;;;5.47;4.07;;;;;;;16.45;61.60;101585.47;4943166;28;20202;-71
2021/05/29 10:14:44;;;;;;;4.90;3.70;;;;;;;16.60;63.66;101578.81;4951451;28;20230;-71
2021/05/29 10:17:11;;;;;;;5.47;3.37;;;;;;;16.79;60.96;101573.72;4946340;28;20209;-72
2021/05/29 10:19:40;;;;;;;5.70;4.03;;;;;;;16.44;59.77;101572.38;4950903;28;20719;-71
2021/05/29 10:22:09;;;;;;;5.40;3.70;;;;;;;16.55;62.36;101571.97;4947596;28;20209;-71
2021/05/29 10:24:37;;;;;;;4.47;3.80;;;;;;;16.63;59.00;101573.41;4950214;28;20285;-71
2021/05/29 10:27:06;;;;;;;3.83;2.83;;;;;;;16.59;60.16;101569.19;4947906;28;20294;-70
2021/05/29 10:29:33;;;;;;;4.53;3.47;;;;;;;16.49;60.11;101564.31;4929032;28;20209;-71
2021/05/29 10:32:16;;;;;;;4.73;3.10;;;;;;;16.64;61.94;101561.97;4954829;28;20796;-70
2021/05/29 10:34:54;;;;;;;4.77;3.00;;;;;;;16.66;60.54;101564.56;4949803;28;20218;-71
2021/05/29 10:37:37;;;;;;;2.93;2.40;;;;;;;16.43;59.02;101563.63;4946472;28;20208;-71
2021/05/29 10:40:48;;;;;;;4.57;2.60;;;;;;;16.49;58.67;101562.53;4947002;28;20194;-71
2021/05/29 10:43:16;;;;;;;2.57;2.37;;;;;;;16.63;56.29;101559.41;4948138;28;20203;-70
2021/05/29 10:46:05;;;;;;;3.27;2.07;;;;;;;16.75;57.11;101573.91;4947122;28;20229;-73
2021/05/29 10:48:43;;;;;;;2.00;1.80;;;;;;;16.50;54.33;101568.66;4950001;28;20278;-70
2021/05/29 10:51:09;;;;;;;3.63;2.07;;;;;;;16.68;52.78;101589.06;4954354;28;20210;-71
2021/05/29 10:53:47;;;;;;;3.53;2.40;;;;;;;16.91;55.02;101566.31;4953674;28;20207;-70
2021/05/29 10:56:33;;;;;;;2.97;1.83;;;;;;;17.37;55.93;101567.16;4947866;28;20195;-71
2021/05/29 10:59:33;;;;;;;4.73;2.40;;;;;;;17.33;54.24;101566.44;4951592;28;20197;-70
2021/05/29 11:02:04;;;;;;;3.90;2.50;;;;;;;17.29;56.37;101559.56;4946335;28;20207;-72
2021/05/29 11:05:20;;;;;;;4.17;2.87;;;;;;;17.40;56.55;101559.16;4941155;28;20237;-71
2021/05/29 11:07:45;;;;;;;4.07;2.90;;;;;;;17.14;54.42;101563.66;4950004;28;20211;-69
2021/05/29 11:10:28;;;;;;;3.13;2.80;;;;;;;16.93;57.12;101557.44;4947393;28;20254;-70
2021/05/29 11:12:56;;;;;;;4.53;2.40;;;;;;;16.77;55.76;101561.53;4948464;28;20223;-70
2021/05/29 11:15:58;;;;;;;3.03;2.53;;;;;;;16.64;53.81;101566.41;4945730;28;20297;-70
2021/05/29 11:18:24;;;;;;;3.30;2.60;;;;;;;16.83;55.32;101554.28;4948993;28;20249;-70
2021/05/29 11:21:04;;;;;;;3.07;2.60;;;;;;;17.05;58.09;101558.75;4944421;28;20289;-71
2021/05/29 11:23:33;;;;;;;2.83;2.53;;;;;;;16.90;54.22;101557.53;4940075;28;20546;-71
2021/05/29 11:26:00;;;;;;;5.37;2.50;;;;;;;17.01;54.58;101552.72;4947501;28;20226;-72
2021/05/29 11:32:14;;;;;;;4.13;2.50;;;;;;;17.45;54.30;101554.53;4949590;28;20680;-70
2021/05/29 11:35:06;;;;;;;3.07;2.03;;;;;;;17.39;51.94;101562.69;4949668;28;20278;-70
2021/05/29 11:41:20;;;;;;;2.50;2.30;;;;;;;17.17;54.95;101538.97;4955494;28;20186;-70
2021/05/29 11:43:53;;;;;;;3.47;2.40;;;;;;;17.09;54.50;101535.78;4953558;28;20229;-70